Time;durP1;ratioP1;P1;durP2;ratioP2;P2;SDS_P1;SDS_P2;PMS_P1;PMS_P2;Temp;Humidity;BMP_temperature;BMP_pressure;BME280_temperature;BME280_humidity;BME280_pressure;Samples;Min_cycle;Max_cycle;Signal;HPM_P1;HPM_P2
2022/08/16 00:00:07;;;;;;;5.90;4.93;;;;;;;24.04;47.52;100014.69;665737;29;1221;-96
2022/08/16 00:00:33;;;;;;;7.78;5.43;;;;;;;24.06;47.63;100028.84;668237;29;1184;-96
2022/08/16 00:00:54;;;;;;;8.20;5.75;;;;;;;23.99;47.64;100014.03;668241;29;1106;-95
2022/08/16 00:01:16;;;;;;;6.45;5.70;;;;;;;24.05;47.88;100016.44;668178;29;1456;-96
2022/08/16 00:01:37;;;;;;;7.13;5.40;;;;;;;24.00;47.62;100012.22;668984;29;1413;-96
2022/08/16 00:02:00;;;;;;;6.97;5.70;;;;;;;24.01;47.83;100016.63;668128;29;1992;-96
2022/08/16 00:02:24;;;;;;;6.90;5.80;;;;;;;24.00;47.82;100013.09;665756;29;1260;-96
2022/08/16 00:02:47;;;;;;;6.40;5.80;;;;;;;24.05;48.08;100024.44;665658;29;1246;-96
2022/08/16 00:03:10;;;;;;;6.70;6.00;;;;;;;24.02;47.95;100024.56;670574;29;1353;-96
2022/08/16 00:03:30;;;;;;;6.57;5.78;;;;;;;23.98;47.98;100025.63;668099;29;1425;-96
2022/08/16 00:03:55;;;;;;;6.20;5.60;;;;;;;23.93;48.00;100015.13;673227;29;1214;-94
2022/08/16 00:04:19;;;;;;;6.07;5.47;;;;;;;23.96;48.15;100027.47;668251;29;1347;-96
2022/08/16 00:04:39;;;;;;;7.00;5.55;;;;;;;23.96;48.29;100025.69;670707;29;1303;-96
2022/08/16 00:05:05;;;;;;;8.07;5.40;;;;;;;24.00;47.96;100025.56;668257;29;1276;-96
2022/08/16 00:05:29;;;;;;;7.00;5.30;;;;;;;23.94;48.17;100024.88;668329;29;1279;-95
2022/08/16 00:05:51;;;;;;;5.88;5.28;;;;;;;23.96;48.07;100028.34;670811;29;1223;-96
2022/08/16 00:06:12;;;;;;;5.60;5.00;;;;;;;23.94;48.25;100032.00;665877;29;1229;-96
2022/08/16 00:06:35;;;;;;;6.80;5.15;;;;;;;23.91;48.36;100029.47;668217;29;1291;-96
2022/08/16 00:06:56;;;;;;;7.10;5.47;;;;;;;23.92;48.29;100023.22;668393;29;1153;-95
2022/08/16 00:07:18;;;;;;;6.00;5.40;;;;;;;23.91;48.43;100032.13;663051;29;1312;-94
2022/08/16 00:07:40;;;;;;;6.90;5.60;;;;;;;23.82;48.22;100012.91;668268;29;1359;-96
2022/08/16 00:08:01;;;;;;;7.32;5.80;;;;;;;23.80;48.53;100011.25;665863;29;1216;-95
2022/08/16 00:08:24;;;;;;;6.40;5.80;;;;;;;23.85;48.56;100027.03;663054;29;1440;-96
2022/08/16 00:08:47;;;;;;;6.93;5.78;;;;;;;23.79;48.51;100018.34;668292;29;1102;-96
2022/08/16 00:09:09;;;;;;;6.32;5.35;;;;;;;23.77;48.31;100022.88;668019;29;1400;-96
2022/08/16 00:09:40;;;;;;;7.80;5.50;;;;;;;23.80;48.59;100025.41;665728;29;1272;-96
2022/08/16 00:10:06;;;;;;;7.40;6.10;;;;;;;23.80;48.43;100029.88;663299;29;1243;-96
2022/08/16 00:10:31;;;;;;;8.18;6.20;;;;;;;23.74;48.37;100020.34;668287;29;1244;-95
2022/08/16 00:10:52;;;;;;;9.32;6.00;;;;;;;23.80;48.36;100033.41;670947;29;1380;-95
2022/08/16 00:11:17;;;;;;;9.65;6.00;;;;;;;23.80;48.37;100033.41;668421;29;1208;-94
2022/08/16 00:11:43;;;;;;;8.77;5.70;;;;;;;23.73;48.37;100023.91;668048;29;1153;-96
2022/08/16 00:12:05;;;;;;;6.82;5.45;;;;;;;23.72;48.73;100022.19;665550;29;1280;-96
2022/08/16 00:12:28;;;;;;;6.50;5.60;;;;;;;23.80;48.71;100029.88;663252;29;1375;-95
2022/08/16 00:12:50;;;;;;;6.85;5.88;;;;;;;23.76;48.85;100014.94;667989;29;1247;-95
2022/08/16 00:13:11;;;;;;;7.75;5.68;;;;;;;23.80;48.64;100030.75;668273;29;1628;-95
2022/08/16 00:13:32;;;;;;;7.22;5.55;;;;;;;23.79;48.93;100030.81;673114;29;1195;-95
2022/08/16 00:13:58;;;;;;;6.80;5.50;;;;;;;23.77;48.83;100022.00;670543;29;1413;-95
2022/08/16 00:14:28;;;;;;;6.20;5.60;;;;;;;23.74;48.88;100025.69;665928;29;1360;-96
2022/08/16 00:14:53;;;;;;;6.10;5.50;;;;;;;23.76;48.89;100034.47;665832;29;1261;-96
2022/08/16 00:15:18;;;;;;;7.47;5.40;;;;;;;23.76;48.87;100034.47;665718;29;1191;-96
2022/08/16 00:15:48;;;;;;;9.77;5.50;;;;;;;23.80;48.63;100038.72;663221;29;1275;-96
2022/08/16 00:16:09;;;;;;;8.60;5.68;;;;;;;23.77;48.70;100030.00;665723;29;1299;-96
2022/08/16 00:16:31;;;;;;;6.95;5.90;;;;;;;23.72;48.50;100026.66;668263;29;1331;-96
2022/08/16 00:16:51;;;;;;;6.30;5.70;;;;;;;23.71;48.73;100028.44;665850;29;1258;-95
2022/08/16 00:17:12;;;;;;;6.50;5.90;;;;;;;23.77;48.72;100035.31;663098;29;1359;-96
2022/08/16 00:17:36;;;;;;;6.30;5.70;;;;;;;23.69;48.44;100019.63;662369;29;1413;-94
2022/08/16 00:17:58;;;;;;;6.30;5.70;;;;;;;23.69;48.82;100027.59;668040;29;1323;-96
2022/08/16 00:18:20;;;;;;;6.10;5.50;;;;;;;23.70;48.60;100026.69;670496;29;1284;-96
2022/08/16 00:18:40;;;;;;;7.05;5.88;;;;;;;23.79;48.79;100038.81;668113;29;1317;-95
2022/08/16 00:19:03;;;;;;;6.85;5.95;;;;;;;23.72;48.88;100034.66;668252;29;1212;-96
2022/08/16 00:19:30;;;;;;;6.63;5.90;;;;;;;23.68;48.80;100025.88;662673;29;1308;-96
2022/08/16 00:19:53;;;;;;;7.07;5.72;;;;;;;23.75;48.81;100039.84;668034;29;1430;-94
2022/08/16 00:20:16;;;;;;;8.93;5.80;;;;;;;23.68;48.76;100023.22;668103;29;1403;-94
2022/08/16 00:20:39;;;;;;;9.38;5.80;;;;;;;23.62;48.69;100026.09;665799;29;1212;-93
2022/08/16 00:21:00;;;;;;;8.32;5.63;;;;;;;23.54;48.92;100024.59;665586;29;1356;-95
2022/08/16 00:21:21;;;;;;;8.10;5.55;;;;;;;23.59;49.18;100036.91;662995;29;1066;-94
2022/08/16 00:21:42;;;;;;;8.15;5.50;;;;;;;23.58;48.91;100024.47;665770;29;1247;-95
2022/08/16 00:22:03;;;;;;;10.27;5.60;;;;;;;23.63;48.85;100034.03;665290;29;1974;-94
2022/08/16 00:22:25;;;;;;;9.32;5.85;;;;;;;23.59;48.71;100026.25;665525;29;1334;-94
2022/08/16 00:22:46;;;;;;;8.98;5.88;;;;;;;23.67;48.78;100030.31;668458;29;1354;-94
2022/08/16 00:23:07;;;;;;;7.97;5.85;;;;;;;23.58;48.87;100020.03;670590;29;1342;-94
2022/08/16 00:23:41;;;;;;;7.20;5.50;;;;;;;23.62;48.90;100036.75;670797;29;947;-94
2022/08/16 00:24:06;;;;;;;6.20;5.60;;;;;;;23.66;48.71;100038.34;668154;29;1187;-93
2022/08/16 00:26:51;;;;;;;9.38;6.45;;;;;;;23.73;48.71;100050.53;673530;29;1363;-95
2022/08/16 00:27:15;;;;;;;7.25;5.35;;;;;;;23.68;48.93;100044.53;670968;29;1279;-95
2022/08/16 00:27:39;;;;;;;9.27;6.10;;;;;;;23.58;48.92;100035.13;668425;29;1285;-95
2022/08/16 00:28:01;;;;;;;7.70;5.90;;;;;;;23.63;48.83;100039.38;671056;29;1204;-95
2022/08/16 00:28:22;;;;;;;6.13;5.45;;;;;;;23.57;48.86;100036.94;670960;29;1384;-95
2022/08/16 00:28:45;;;;;;;5.68;5.15;;;;;;;23.60;48.81;100042.13;671047;29;1193;-94
2022/08/16 00:29:09;;;;;;;5.88;5.13;;;;;;;23.59;48.92;100042.22;665825;29;1254;-95
2022/08/16 00:29:31;;;;;;;5.80;5.20;;;;;;;23.57;49.16;100039.59;671102;29;1299;-94
2022/08/16 00:29:53;;;;;;;5.65;5.15;;;;;;;23.51;48.87;100032.72;673627;29;1208;-94
2022/08/16 00:30:15;;;;;;;5.78;5.28;;;;;;;23.60;48.86;100041.28;665911;29;1074;-92
2022/08/16 00:30:36;;;;;;;6.60;5.30;;;;;;;23.49;48.90;100031.03;668398;29;1283;-95
2022/08/16 00:30:58;;;;;;;6.82;5.47;;;;;;;23.53;48.78;100044.19;668821;29;1227;-93
2022/08/16 00:31:19;;;;;;;8.60;6.00;;;;;;;23.47;48.84;100028.44;666001;29;1351;-94
2022/08/16 00:31:42;;;;;;;7.93;5.85;;;;;;;23.45;48.77;100024.97;669270;29;1343;-94
2022/08/16 00:32:07;;;;;;;8.18;5.70;;;;;;;23.49;48.83;100037.22;666515;29;1366;-93
2022/08/16 00:32:31;;;;;;;8.38;5.35;;;;;;;23.46;48.53;100032.03;663532;29;1366;-94
2022/08/16 00:32:55;;;;;;;6.40;5.20;;;;;;;23.51;48.71;100035.38;671505;29;1446;-95
2022/08/16 00:33:21;;;;;;;7.05;5.53;;;;;;;23.43;48.85;100026.81;671427;29;1259;-94
2022/08/16 00:33:42;;;;;;;7.18;5.70;;;;;;;23.48;48.96;100035.47;666362;29;1322;-94
2022/08/16 00:34:09;;;;;;;7.15;5.72;;;;;;;23.45;49.18;100024.97;669135;29;1341;-94
2022/08/16 00:34:37;;;;;;;5.95;5.45;;;;;;;23.42;49.23;100025.06;674062;29;1340;-96
2022/08/16 00:34:59;;;;;;;6.00;5.40;;;;;;;23.49;49.14;100047.88;666693;29;1184;-94
2022/08/16 00:35:27;;;;;;;5.78;5.28;;;;;;;23.41;48.94;100026.88;671367;29;1179;-93
2022/08/16 00:35:54;;;;;;;6.55;5.75;;;;;;;23.39;49.25;100027.84;668916;29;1323;-94
2022/08/16 00:36:19;;;;;;;7.93;5.70;;;;;;;23.39;49.15;100030.50;668740;29;1381;-95
2022/08/16 00:36:45;;;;;;;9.60;5.70;;;;;;;23.42;49.09;100043.69;666369;29;1175;-93
2022/08/16 00:37:06;;;;;;;8.75;5.60;;;;;;;23.35;49.28;100026.25;663538;29;1401;-95
2022/08/16 00:37:31;;;;;;;8.00;5.60;;;;;;;23.38;49.08;100028.78;668583;29;1196;-94
2022/08/16 00:37:56;;;;;;;7.03;5.85;;;;;;;23.35;49.32;100034.22;666335;29;1288;-94
2022/08/16 00:38:17;;;;;;;7.43;6.25;;;;;;;23.32;49.33;100029.00;665984;29;1304;-94
2022/08/16 00:38:41;;;;;;;7.60;5.80;;;;;;;23.30;49.20;100028.19;666371;29;1384;-94
2022/08/16 00:39:04;;;;;;;7.18;5.80;;;;;;;23.12;49.67;100033.28;666208;29;1148;-93
2022/08/16 00:39:25;;;;;;;6.38;5.50;;;;;;;23.09;49.84;100049.34;661219;30;1336;-95
2022/08/16 00:39:47;;;;;;;6.30;5.70;;;;;;;23.01;50.00;100049.63;663601;29;1339;-95
2022/08/16 00:40:19;;;;;;;6.78;5.97;;;;;;;22.82;50.12;100025.44;664475;29;1211;-94
2022/08/16 00:40:45;;;;;;;6.80;5.95;;;;;;;22.83;50.49;100035.16;669159;29;1356;-94
2022/08/16 00:41:08;;;;;;;7.95;5.95;;;;;;;22.84;50.51;100035.09;669110;29;1162;-93
2022/08/16 00:41:33;;;;;;;7.97;6.03;;;;;;;22.83;50.67;100038.69;666663;29;1177;-94
2022/08/16 00:42:00;;;;;;;6.90;6.20;;;;;;;22.68;50.61;100018.81;671595;29;1985;-94
2022/08/16 00:42:28;;;;;;;6.40;5.80;;;;;;;22.73;50.91;100032.81;671453;29;1227;-94
2022/08/16 00:42:49;;;;;;;6.28;5.68;;;;;;;22.70;50.91;100030.25;671849;29;1196;-94
2022/08/16 00:43:36;;;;;;;6.00;5.40;;;;;;;22.78;51.04;100045.94;669238;29;1337;-94
2022/08/16 00:44:00;;;;;;;7.15;5.32;;;;;;;22.70;50.92;100038.22;669740;29;1264;-94
2022/08/16 00:44:21;;;;;;;8.25;5.60;;;;;;;22.67;50.59;100029.50;666560;29;1083;-94
2022/08/16 00:44:55;;;;;;;6.65;5.60;;;;;;;22.65;50.58;100028.66;666508;29;1315;-95
2022/08/16 00:45:41;;;;;;;5.88;5.15;;;;;;;22.65;50.80;100020.69;664290;29;1256;-94
2022/08/16 00:46:09;;;;;;;5.68;4.95;;;;;;;22.77;50.66;100048.66;671780;29;1224;-93
2022/08/16 00:46:45;;;;;;;5.90;5.30;;;;;;;22.70;50.69;100030.25;667579;29;1442;-94
2022/08/16 00:47:15;;;;;;;6.18;5.38;;;;;;;22.67;50.73;100033.03;670966;29;1149;-94
2022/08/16 00:47:43;;;;;;;7.00;5.40;;;;;;;22.76;50.63;100046.91;668456;29;1208;-93
2022/08/16 00:48:08;;;;;;;7.18;5.90;;;;;;;22.66;50.44;100030.41;670962;29;1197;-94
2022/08/16 00:48:30;;;;;;;6.80;6.00;;;;;;;22.66;50.52;100030.41;670414;29;1196;-94
2022/08/16 00:48:52;;;;;;;7.22;5.90;;;;;;;22.65;50.68;100029.56;671111;29;1243;-94
2022/08/16 00:49:13;;;;;;;6.75;5.68;;;;;;;22.74;50.64;100042.53;676068;29;1333;-94
2022/08/16 00:49:35;;;;;;;6.20;5.60;;;;;;;22.71;50.84;100039.09;673670;29;1223;-94
2022/08/16 00:49:56;;;;;;;6.05;5.50;;;;;;;22.63;50.68;100023.44;670989;29;1090;-93
2022/08/16 00:50:25;;;;;;;5.90;5.30;;;;;;;22.61;50.71;100022.59;671007;29;1291;-93
2022/08/16 00:50:46;;;;;;;6.70;5.50;;;;;;;22.62;50.56;100026.97;670853;29;1031;-94
2022/08/16 00:51:09;;;;;;;6.60;5.30;;;;;;;22.63;50.81;100030.53;670867;29;1180;-93
2022/08/16 00:51:30;;;;;;;5.95;5.40;;;;;;;22.68;50.85;100042.72;673351;29;1331;-94
2022/08/16 00:51:51;;;;;;;5.80;5.30;;;;;;;22.61;50.73;100027.91;668610;29;1128;-92
2022/08/16 00:52:12;;;;;;;5.82;5.32;;;;;;;22.65;50.75;100034.88;668439;29;1088;-93
2022/08/16 00:52:34;;;;;;;5.80;5.30;;;;;;;22.60;50.68;100021.75;670996;29;1312;-93
2022/08/16 00:52:55;;;;;;;6.10;5.50;;;;;;;22.65;50.75;100032.22;671014;29;1269;-93
2022/08/16 00:53:17;;;;;;;6.17;5.57;;;;;;;22.61;50.66;100027.91;670817;29;1202;-94
2022/08/16 00:53:41;;;;;;;6.40;5.75;;;;;;;22.64;50.81;100029.59;668957;29;1369;-92
2022/08/16 00:54:02;;;;;;;6.07;5.47;;;;;;;22.59;50.86;100027.09;670848;29;1302;-92
2022/08/16 00:54:29;;;;;;;5.80;5.20;;;;;;;22.68;50.88;100042.72;673892;29;1294;-93
2022/08/16 00:54:50;;;;;;;5.50;5.00;;;;;;;22.60;50.78;100031.50;668007;29;1231;-94
2022/08/16 00:55:14;;;;;;;5.90;5.30;;;;;;;22.60;50.91;100036.81;670387;29;1286;-94
2022/08/16 00:55:42;;;;;;;6.20;5.60;;;;;;;22.65;50.78;100042.84;666903;29;1536;-93
2022/08/16 00:56:10;;;;;;;6.32;5.72;;;;;;;22.55;50.81;100030.78;664407;29;1183;-93
2022/08/16 00:56:34;;;;;;;5.90;5.40;;;;;;;22.65;50.90;100049.94;667588;29;1218;-93
2022/08/16 00:57:03;;;;;;;5.93;5.40;;;;;;;22.64;50.90;100049.09;669623;29;1256;-94
2022/08/16 00:57:25;;;;;;;5.90;5.30;;;;;;;22.54;51.18;100026.38;672547;29;1254;-94
2022/08/16 00:57:48;;;;;;;6.53;5.75;;;;;;;22.51;50.87;100021.19;672836;29;1290;-94
2022/08/16 00:58:14;;;;;;;6.68;5.97;;;;;;;22.56;50.93;100032.53;672752;29;1389;-93
2022/08/16 00:58:38;;;;;;;6.45;5.85;;;;;;;22.52;51.06;100033.53;670280;29;1137;-94
2022/08/16 00:58:59;;;;;;;6.40;5.80;;;;;;;22.59;51.39;100045.72;669976;29;1195;-92
2022/08/16 00:59:23;;;;;;;6.25;5.68;;;;;;;22.57;51.11;100031.59;670939;29;1238;-94
2022/08/16 00:59:46;;;;;;;6.10;5.40;;;;;;;22.53;51.04;100030.84;671008;29;1605;-94
2022/08/16 01:00:09;;;;;;;6.68;5.45;;;;;;;22.56;51.26;100038.69;668128;29;1171;-94
2022/08/16 01:00:31;;;;;;;6.20;5.60;;;;;;;22.43;51.52;100024.97;670828;29;1362;-94
2022/08/16 01:00:53;;;;;;;6.03;5.45;;;;;;;22.44;51.45;100016.06;670590;29;1224;-95
2022/08/16 01:01:17;;;;;;;5.82;5.32;;;;;;;22.50;51.39;100032.75;670624;29;1234;-93
2022/08/16 01:01:45;;;;;;;6.40;5.50;;;;;;;22.50;51.40;100038.91;673394;29;1324;-94
2022/08/16 01:02:08;;;;;;;6.82;5.80;;;;;;;22.42;51.56;100027.66;667945;29;1985;-94
2022/08/16 01:02:29;;;;;;;6.78;5.72;;;;;;;22.46;51.44;100035.47;670798;29;1219;-94
2022/08/16 01:02:51;;;;;;;6.30;5.70;;;;;;;22.49;51.58;100044.28;670841;29;996;-94
2022/08/16 01:03:17;;;;;;;6.20;5.60;;;;;;;22.41;51.68;100031.25;665573;29;1122;-95
2022/08/16 01:03:45;;;;;;;6.20;5.60;;;;;;;22.42;51.74;100044.50;665693;29;1154;-94
2022/08/16 01:04:10;;;;;;;6.10;5.60;;;;;;;22.35;51.85;100031.44;668144;29;1368;-94
2022/08/16 01:04:32;;;;;;;6.10;5.60;;;;;;;22.32;51.64;100022.66;668197;29;1216;-94
2022/08/16 01:04:56;;;;;;;6.10;5.50;;;;;;;22.41;52.07;100042.75;670840;29;1652;-94
2022/08/16 01:05:20;;;;;;;6.25;5.65;;;;;;;22.32;51.73;100029.78;665488;29;1109;-94
2022/08/16 01:05:42;;;;;;;6.40;5.80;;;;;;;22.34;51.77;100027.94;668202;29;1529;-94
2022/08/16 01:06:05;;;;;;;6.40;5.90;;;;;;;22.33;51.74;100031.50;668057;29;1482;-94
2022/08/16 01:06:28;;;;;;;6.80;6.15;;;;;;;22.38;51.89;100042.00;665576;29;1435;-94
2022/08/16 01:06:49;;;;;;;8.80;6.00;;;;;;;22.35;52.00;100037.63;663095;29;1479;-94
2022/08/16 01:07:18;;;;;;;8.68;5.93;;;;;;;22.32;51.96;100032.44;662992;29;1338;-94
2022/08/16 01:07:41;;;;;;;6.38;5.78;;;;;;;22.34;52.04;100041.22;663225;29;1331;-94
2022/08/16 01:08:05;;;;;;;6.20;5.60;;;;;;;22.31;51.98;100041.31;663314;29;1291;-94
2022/08/16 01:08:27;;;;;;;6.43;5.78;;;;;;;22.27;52.13;100029.06;665598;29;1363;-94
2022/08/16 01:08:52;;;;;;;7.32;5.90;;;;;;;22.25;52.02;100028.22;665550;29;1417;-94
2022/08/16 01:09:19;;;;;;;6.78;5.82;;;;;;;22.26;51.92;100029.97;668106;29;1391;-94
2022/08/16 01:09:40;;;;;;;5.70;5.20;;;;;;;22.27;51.93;100032.59;668089;29;1268;-95
2022/08/16 01:10:01;;;;;;;5.75;5.25;;;;;;;22.28;51.90;100041.41;665398;29;1226;-94
2022/08/16 01:10:25;;;;;;;5.85;5.25;;;;;;;22.33;51.97;100034.16;665667;29;1250;-94
2022/08/16 01:10:46;;;;;;;6.80;5.75;;;;;;;22.42;51.82;100044.50;665408;29;1394;-95
2022/08/16 01:11:11;;;;;;;7.50;5.72;;;;;;;22.31;52.02;100041.31;667956;29;1266;-94
2022/08/16 01:11:35;;;;;;;6.20;5.60;;;;;;;22.36;52.10;100050.00;668097;29;1357;-94
2022/08/16 01:11:56;;;;;;;6.85;5.60;;;;;;;22.26;52.05;100038.78;665494;29;1284;-94
2022/08/16 01:12:19;;;;;;;7.57;5.93;;;;;;;22.22;52.06;100028.28;667983;29;1162;-94
2022/08/16 01:12:40;;;;;;;7.68;6.15;;;;;;;22.28;52.12;100044.97;668297;29;1326;-94
2022/08/16 01:13:08;;;;;;;6.65;5.72;;;;;;;22.28;52.39;100047.63;668072;29;1342;-95
2022/08/16 01:13:32;;;;;;;6.40;5.70;;;;;;;22.27;52.39;100042.34;670408;29;1326;-95
2022/08/16 01:14:04;;;;;;;7.53;6.22;;;;;;;22.17;52.15;100028.44;673222;29;1222;-95
2022/08/16 01:14:33;;;;;;;7.10;6.40;;;;;;;22.22;52.13;100039.81;670533;29;1097;-95
2022/08/16 01:14:59;;;;;;;7.40;6.40;;;;;;;22.18;52.48;100036.38;662976;29;1252;-95
2022/08/16 01:15:21;;;;;;;8.32;6.10;;;;;;;22.17;52.43;100036.41;665356;29;1230;-95
2022/08/16 01:15:51;;;;;;;8.13;6.13;;;;;;;22.18;52.46;100043.47;667999;29;1414;-95
2022/08/16 01:16:23;;;;;;;7.63;6.85;;;;;;;22.10;52.61;100022.47;670475;29;1447;-94
2022/08/16 01:16:46;;;;;;;7.00;6.30;;;;;;;22.31;52.24;100042.19;668149;29;1330;-94
2022/08/16 01:17:12;;;;;;;6.40;5.80;;;;;;;22.45;51.83;100049.69;662927;29;1243;-94
2022/08/16 01:17:36;;;;;;;6.80;5.90;;;;;;;22.45;51.76;100041.72;668107;29;1219;-95
2022/08/16 01:18:01;;;;;;;6.65;5.90;;;;;;;22.48;51.86;100037.25;667976;29;1291;-94
2022/08/16 01:18:26;;;;;;;6.38;5.78;;;;;;;22.51;51.82;100031.81;668168;29;1391;-95
2022/08/16 01:18:55;;;;;;;6.28;5.68;;;;;;;22.52;51.63;100033.53;663209;29;1229;-95
2022/08/16 01:19:23;;;;;;;7.18;5.90;;;;;;;22.59;51.71;100048.38;663116;29;1252;-94
2022/08/16 01:19:59;;;;;;;7.30;6.18;;;;;;;22.55;51.63;100049.38;663505;29;1356;-95
2022/08/16 01:20:26;;;;;;;6.68;5.97;;;;;;;22.58;51.61;100047.50;668027;29;1125;-94
2022/08/16 01:21:01;;;;;;;6.18;5.45;;;;;;;22.53;51.53;100035.28;668059;29;1204;-94
2022/08/16 01:21:48;;;;;;;6.20;5.60;;;;;;;22.52;51.78;100037.09;665360;29;1224;-94
2022/08/16 01:22:27;;;;;;;6.40;5.80;;;;;;;22.47;51.69;100036.38;670488;29;1908;-94
2022/08/16 01:22:56;;;;;;;6.55;5.95;;;;;;;22.58;51.89;100050.16;670761;29;980;-94
2022/08/16 01:23:25;;;;;;;6.30;5.70;;;;;;;22.54;51.72;100050.31;673718;29;1450;-94
2022/08/16 01:24:17;;;;;;;6.35;5.75;;;;;;;22.54;51.69;100042.31;667969;29;1341;-94
2022/08/16 01:24:43;;;;;;;7.00;6.30;;;;;;;22.44;51.69;100032.00;672950;29;1154;-93
2022/08/16 01:25:17;;;;;;;6.80;6.20;;;;;;;22.56;51.77;100052.00;670291;29;1463;-91
2022/08/16 01:25:45;;;;;;;6.53;5.93;;;;;;;22.51;51.97;100053.06;668013;29;1388;-94
2022/08/16 01:26:15;;;;;;;6.65;5.97;;;;;;;22.45;51.88;100041.72;667912;29;1314;-96
2022/08/16 01:26:38;;;;;;;6.15;5.65;;;;;;;22.44;51.91;100047.97;665541;29;1253;-94
2022/08/16 01:27:11;;;;;;;6.13;5.63;;;;;;;22.40;52.17;100037.47;665682;29;1315;-95
2022/08/16 01:27:40;;;;;;;6.60;6.00;;;;;;;22.41;51.93;100036.56;665483;29;1130;-96
2022/08/16 01:28:05;;;;;;;6.30;5.70;;;;;;;22.51;52.11;100050.41;668160;29;1276;-94
2022/08/16 01:28:27;;;;;;;6.20;5.60;;;;;;;22.37;51.76;100041.09;673166;29;1388;-95
2022/08/16 01:28:48;;;;;;;6.40;5.80;;;;;;;22.40;52.07;100042.81;670437;29;1275;-95
2022/08/16 01:29:14;;;;;;;6.57;5.97;;;;;;;22.41;51.82;100053.38;672920;29;1223;-95
2022/08/16 01:29:43;;;;;;;7.40;6.03;;;;;;;22.36;51.98;100039.38;670619;29;1311;-96
2022/08/16 01:30:06;;;;;;;9.20;6.00;;;;;;;22.49;51.90;100055.78;673200;29;1333;-95
2022/08/16 01:30:35;;;;;;;8.30;5.90;;;;;;;22.48;51.89;100061.16;668097;29;1168;-94
2022/08/16 01:31:00;;;;;;;7.25;5.80;;;;;;;22.39;51.80;100051.69;668140;29;1096;-92
2022/08/16 01:31:31;;;;;;;6.40;5.80;;;;;;;22.45;51.79;100056.81;668126;29;1177;-93
2022/08/16 01:31:52;;;;;;;6.35;5.70;;;;;;;22.42;51.85;100048.91;673334;29;1427;-92
2022/08/16 01:32:16;;;;;;;6.80;5.80;;;;;;;22.41;51.99;100052.50;673045;29;1571;-93
2022/08/16 01:32:41;;;;;;;7.43;5.80;;;;;;;22.44;52.11;100055.09;670721;29;1164;-93
2022/08/16 01:33:05;;;;;;;6.22;5.63;;;;;;;22.43;51.85;100051.53;670647;29;1316;-93
2022/08/16 01:33:28;;;;;;;6.15;5.60;;;;;;;22.40;52.11;100041.03;665660;29;1265;-94
2022/08/16 01:33:49;;;;;;;6.55;5.80;;;;;;;22.33;52.11;100024.38;668094;29;1478;-93
2022/08/16 01:34:15;;;;;;;6.22;5.63;;;;;;;22.40;52.08;100046.34;672967;29;1301;-94
2022/08/16 01:34:38;;;;;;;6.20;5.60;;;;;;;22.39;51.94;100044.59;668112;29;1263;-94
2022/08/16 01:35:02;;;;;;;6.22;5.60;;;;;;;22.37;52.10;100046.44;665535;29;1337;-94
2022/08/16 01:35:47;;;;;;;8.57;6.18;;;;;;;22.38;51.94;100044.66;670662;29;1328;-95
2022/08/16 01:36:11;;;;;;;6.22;5.60;;;;;;;22.42;52.00;100057.78;667921;29;1255;-93
2022/08/16 01:36:36;;;;;;;6.55;5.85;;;;;;;22.31;52.39;100041.31;665460;29;1440;-95
2022/08/16 01:37:02;;;;;;;6.90;6.20;;;;;;;22.27;52.41;100029.94;668013;29;1264;-94
2022/08/16 01:37:29;;;;;;;6.82;6.22;;;;;;;22.37;52.36;100053.53;665616;29;1331;-94
2022/08/16 01:38:29;;;;;;;6.65;6.05;;;;;;;22.33;52.21;100044.81;665312;29;1427;-93
2022/08/16 01:38:51;;;;;;;9.55;6.18;;;;;;;22.26;52.58;100032.63;670466;29;1165;-95
2022/08/16 01:39:17;;;;;;;7.15;5.53;;;;;;;22.26;52.40;100035.28;670446;29;1294;-94
2022/08/16 01:39:42;;;;;;;6.93;5.70;;;;;;;22.27;52.50;100045.88;666053;29;1235;-94
2022/08/16 01:40:06;;;;;;;6.82;6.07;;;;;;;22.23;52.42;100035.34;666214;29;1414;-95
2022/08/16 01:40:29;;;;;;;6.72;6.10;;;;;;;22.24;52.50;100039.75;668086;29;1308;-96
2022/08/16 01:40:55;;;;;;;6.30;5.70;;;;;;;22.23;52.49;100038.00;668880;29;1280;-93
2022/08/16 01:41:21;;;;;;;6.28;5.68;;;;;;;22.27;52.24;100039.69;668693;29;1386;-95
2022/08/16 01:41:44;;;;;;;6.32;5.72;;;;;;;22.21;52.24;100031.88;671556;29;1200;-95
2022/08/16 01:42:17;;;;;;;6.60;5.88;;;;;;;22.22;52.21;100036.25;668930;29;1971;-95
2022/08/16 01:42:37;;;;;;;6.65;5.70;;;;;;;22.25;52.20;100039.72;669003;29;1156;-94
2022/08/16 01:43:01;;;;;;;6.15;5.55;;;;;;;22.19;52.36;100029.25;674158;29;1230;-95
2022/08/16 01:43:25;;;;;;;5.80;5.30;;;;;;;22.18;52.22;100031.06;674019;29;1285;-94
2022/08/16 01:43:48;;;;;;;8.90;5.20;;;;;;;22.19;52.31;100027.47;668710;29;1373;-95
2022/08/16 01:44:09;;;;;;;9.98;5.57;;;;;;;22.24;52.20;100037.09;666368;29;1309;-95
2022/08/16 01:44:30;;;;;;;10.40;5.55;;;;;;;22.26;52.25;100044.13;666461;29;1212;-95
2022/08/16 01:44:52;;;;;;;6.13;5.32;;;;;;;22.30;52.26;100048.41;669326;29;1232;-95
2022/08/16 01:45:22;;;;;;;6.10;5.50;;;;;;;22.29;52.37;100043.16;666069;29;1474;-95
2022/08/16 01:45:56;;;;;;;6.40;5.80;;;;;;;22.28;51.88;100036.97;666302;29;1295;-95
2022/08/16 01:46:21;;;;;;;6.45;5.80;;;;;;;22.33;52.03;100050.13;668784;29;1318;-95
2022/08/16 01:46:45;;;;;;;6.28;5.68;;;;;;;22.33;51.92;100056.28;672184;29;1354;-95
2022/08/16 01:47:14;;;;;;;6.05;5.53;;;;;;;22.22;51.82;100031.81;675392;29;1210;-94
2022/08/16 01:47:44;;;;;;;6.25;5.65;;;;;;;22.26;52.21;100033.47;672497;29;1420;-94
2022/08/16 01:48:05;;;;;;;5.90;5.30;;;;;;;22.29;51.97;100038.72;670681;29;1319;-94
2022/08/16 01:48:31;;;;;;;5.72;5.13;;;;;;;22.24;52.24;100029.13;670581;29;1279;-94
2022/08/16 01:48:58;;;;;;;6.20;5.60;;;;;;;22.28;52.11;100036.97;665563;29;1271;-94
2022/08/16 01:49:27;;;;;;;5.90;5.40;;;;;;;22.22;52.28;100033.59;665655;29;1315;-95
2022/08/16 01:49:50;;;;;;;6.22;5.72;;;;;;;22.20;52.40;100023.03;668228;29;1467;-95
2022/08/16 01:50:12;;;;;;;6.50;5.90;;;;;;;22.18;52.14;100023.09;668265;29;1557;-95
2022/08/16 01:50:34;;;;;;;6.50;5.90;;;;;;;22.19;52.15;100026.59;670575;29;1294;-94
2022/08/16 01:50:56;;;;;;;6.22;5.63;;;;;;;22.26;52.19;100040.59;670578;29;1332;-95
2022/08/16 01:51:19;;;;;;;6.30;5.70;;;;;;;22.27;52.24;100037.91;670390;29;1426;-93
2022/08/16 01:51:44;;;;;;;6.60;6.00;;;;;;;22.23;52.11;100035.34;670512;29;1413;-94
2022/08/16 01:52:12;;;;;;;8.80;6.00;;;;;;;22.18;52.14;100031.06;668257;29;1239;-94
2022/08/16 01:52:46;;;;;;;7.90;5.70;;;;;;;22.18;52.13;100024.84;663094;29;1367;-95
2022/08/16 01:53:14;;;;;;;6.63;6.03;;;;;;;22.15;52.33;100023.19;668006;29;1426;-94
2022/08/16 01:53:55;;;;;;;6.13;5.53;;;;;;;22.16;52.14;100030.25;668152;29;1326;-95
2022/08/16 01:54:26;;;;;;;6.00;5.40;;;;;;;22.23;52.06;100035.34;670737;29;1149;-94
2022/08/16 01:54:51;;;;;;;5.97;5.38;;;;;;;22.23;52.27;100036.22;670748;29;1373;-95
2022/08/16 01:55:17;;;;;;;7.13;5.65;;;;;;;22.19;52.15;100032.78;668125;29;1482;-94
2022/08/16 01:55:44;;;;;;;7.20;5.60;;;;;;;22.23;52.41;100038.00;668023;29;1416;-94
2022/08/16 01:56:17;;;;;;;6.55;5.60;;;;;;;22.16;52.30;100024.06;673064;29;1278;-95
2022/08/16 01:56:38;;;;;;;6.35;5.75;;;;;;;22.13;52.25;100017.03;672953;29;1303;-94
2022/08/16 01:57:03;;;;;;;6.00;5.40;;;;;;;22.22;52.28;100041.56;670631;29;1330;-95
2022/08/16 01:57:32;;;;;;;6.10;5.50;;;;;;;22.18;52.15;100033.72;670519;29;1282;-94
2022/08/16 01:58:00;;;;;;;6.00;5.50;;;;;;;22.17;52.08;100033.75;670465;29;1422;-94
2022/08/16 01:58:26;;;;;;;6.15;5.65;;;;;;;22.11;52.06;100018.00;670446;29;1263;-94
2022/08/16 01:58:49;;;;;;;6.40;5.80;;;;;;;22.23;52.37;100040.66;665518;29;1285;-95
2022/08/16 01:59:13;;;;;;;7.00;5.80;;;;;;;22.10;52.15;100022.47;667925;29;1395;-95
2022/08/16 01:59:37;;;;;;;7.35;6.00;;;;;;;22.22;52.33;100041.56;667744;29;1257;-95
2022/08/16 01:59:59;;;;;;;7.00;6.00;;;;;;;22.18;52.20;100033.72;663042;29;1252;-94
2022/08/16 02:00:20;;;;;;;6.55;5.78;;;;;;;22.13;52.17;100025.00;667866;29;1217;-96
2022/08/16 02:00:41;;;;;;;6.28;5.68;;;;;;;22.18;52.42;100032.84;667923;29;1227;-94
2022/08/16 02:01:07;;;;;;;6.15;5.65;;;;;;;22.13;52.56;100027.66;667935;29;1394;-95
2022/08/16 02:01:32;;;;;;;6.63;5.85;;;;;;;22.10;52.47;100018.94;667986;29;1220;-96
2022/08/16 02:01:54;;;;;;;7.28;5.80;;;;;;;22.09;52.50;100020.72;667776;29;1300;-94